Time;durP1;ratioP1;P1;durP2;ratioP2;P2;SDS_P1;SDS_P2;PMS_P1;PMS_P2;Temp;Humidity;BMP_temperature;BMP_pressure;BME280_temperature;BME280_humidity;BME280_pressure;Samples;Min_cycle;Max_cycle;Signal;HPM_P1;HPM_P2
2021/06/24 00:00:11;;;;;;;17.30;7.95;;;;;;;19.50;74.55;100444.55;126316;1095;24196;-77
2021/06/24 00:03:02;;;;;;;18.98;6.50;;;;;;;19.52;74.33;100441.95;126248;1094;25992;-78
2021/06/24 00:05:34;;;;;;;18.65;7.60;;;;;;;19.52;74.24;100442.72;126310;1096;26267;-77
2021/06/24 00:08:06;;;;;;;18.78;6.50;;;;;;;19.52;74.42;100428.55;126288;1096;22821;-78
2021/06/24 00:10:39;;;;;;;16.05;6.28;;;;;;;19.54;74.05;100420.29;126254;1096;22786;-77
2021/06/24 00:13:10;;;;;;;18.40;6.40;;;;;;;19.55;74.26;100410.51;126580;1096;26262;-77
2021/06/24 00:15:42;;;;;;;14.60;6.73;;;;;;;19.54;74.19;100419.52;126656;1095;22804;-78
2021/06/24 00:18:14;;;;;;;22.10;7.45;;;;;;;19.54;74.34;100425.19;126775;1096;22933;-77
2021/06/24 00:20:47;;;;;;;20.28;7.43;;;;;;;19.51;74.58;100429.88;127050;1095;24086;-78
2021/06/24 00:23:19;;;;;;;18.18;7.88;;;;;;;19.51;74.47;100438.38;126662;1095;23043;-77
2021/06/24 00:25:50;;;;;;;18.98;7.70;;;;;;;19.51;74.33;100438.38;126635;1095;22817;-78
2021/06/24 00:28:23;;;;;;;20.65;7.23;;;;;;;19.54;74.49;100445.77;126588;1095;22779;-78
2021/06/24 00:30:57;;;;;;;16.90;7.77;;;;;;;19.55;74.48;100441.66;126532;1096;22778;-78
2021/06/24 00:33:31;;;;;;;20.63;8.35;;;;;;;19.54;74.12;100445.77;126827;1095;22888;-78
2021/06/24 00:36:03;;;;;;;16.63;7.70;;;;;;;19.53;74.36;100434.99;126463;1096;22818;-78
2021/06/24 00:38:35;;;;;;;17.10;7.80;;;;;;;19.53;74.56;100440.66;126375;1095;22780;-78
2021/06/24 00:41:07;;;;;;;18.40;6.95;;;;;;;19.52;74.44;100439.89;126250;1096;22863;-77
2021/06/24 00:43:38;;;;;;;18.37;8.00;;;;;;;19.51;74.89;100437.59;126275;1096;22863;-78
2021/06/24 00:46:10;;;;;;;24.48;8.45;;;;;;;19.47;74.52;100451.30;126351;1094;22782;-78
2021/06/24 00:48:42;;;;;;;19.55;8.70;;;;;;;19.44;74.48;100472.95;126264;1096;23226;-77
2021/06/24 00:51:13;;;;;;;16.70;7.63;;;;;;;19.45;74.78;100497.11;126343;1095;22806;-77
2021/06/24 00:53:44;;;;;;;21.33;9.00;;;;;;;19.40;74.86;100497.97;126452;1096;22796;-78
2021/06/24 00:56:28;;;;;;;17.15;8.18;;;;;;;19.33;74.81;100505.00;126582;1095;22804;-78
2021/06/24 00:59:02;;;;;;;20.03;8.40;;;;;;;19.27;74.99;100512.77;126724;1095;22803;-78
2021/06/24 01:01:37;;;;;;;20.03;8.63;;;;;;;19.24;75.04;100518.73;126679;1095;22920;-77
2021/06/24 01:04:09;;;;;;;22.90;8.93;;;;;;;19.25;75.29;100526.69;126594;1096;22871;-78
2021/06/24 01:06:40;;;;;;;25.05;9.35;;;;;;;19.23;75.20;100520.79;126636;1095;22807;-78
2021/06/24 01:09:12;;;;;;;19.03;8.43;;;;;;;19.20;75.16;100526.77;126600;1096;26382;-78
2021/06/24 01:11:44;;;;;;;21.30;8.93;;;;;;;19.21;75.23;100545.26;126574;1095;27345;-77
2021/06/24 01:14:16;;;;;;;15.58;6.73;;;;;;;19.21;75.55;100546.03;126682;1096;22776;-78
2021/06/24 01:16:47;;;;;;;23.70;8.50;;;;;;;19.20;75.39;100552.98;127023;1096;22848;-77
2021/06/24 01:19:19;;;;;;;19.10;8.43;;;;;;;19.17;75.70;100562.55;126626;1095;22932;-78
2021/06/24 01:21:50;;;;;;;20.63;9.28;;;;;;;19.15;75.93;100575.69;126558;1095;25871;-77
2021/06/24 01:24:22;;;;;;;19.07;8.83;;;;;;;19.09;76.18;100612.55;126230;1095;22877;-77
2021/06/24 01:27:04;;;;;;;19.60;8.23;;;;;;;19.02;76.37;100632.15;126340;1096;27357;-77
2021/06/24 01:29:35;;;;;;;28.83;9.18;;;;;;;18.92;77.38;100630.95;126319;1096;22803;-77
2021/06/24 01:32:08;;;;;;;16.78;7.90;;;;;;;18.81;78.52;100642.39;126273;1095;22861;-78
2021/06/24 01:34:41;;;;;;;17.53;6.73;;;;;;;18.64;78.78;100641.73;126299;1095;22776;-78
2021/06/24 01:37:14;;;;;;;12.53;5.63;;;;;;;18.51;78.91;100628.98;126437;1095;22831;-80
2021/06/24 01:39:45;;;;;;;12.78;5.50;;;;;;;18.39;79.08;100623.89;126398;1095;22762;-79
2021/06/24 01:42:16;;;;;;;12.05;4.30;;;;;;;18.31;79.78;100597.48;126444;1096;22797;-79
2021/06/24 01:44:48;;;;;;;10.93;4.17;;;;;;;18.23;79.74;100571.08;126356;1095;27184;-79
2021/06/24 01:47:19;;;;;;;10.80;4.27;;;;;;;18.16;79.55;100565.98;126504;1096;23636;-79
2021/06/24 01:49:51;;;;;;;13.90;4.13;;;;;;;18.10;80.09;100551.90;126473;1095;22842;-78
2021/06/24 01:52:23;;;;;;;14.87;4.17;;;;;;;18.06;79.80;100559.11;126436;1096;22776;-80
2021/06/24 01:54:54;;;;;;;15.57;4.03;;;;;;;18.08;79.80;100567.83;126815;1095;22810;-78
2021/06/24 01:57:26;;;;;;;10.65;4.03;;;;;;;18.11;80.10;100576.02;126248;1095;22785;-78
2021/06/24 01:59:59;;;;;;;10.45;3.88;;;;;;;18.14;80.48;100605.30;126303;1095;22877;-78
2021/06/24 02:02:30;;;;;;;12.45;4.05;;;;;;;18.15;80.49;100635.07;126353;1096;27308;-79
2021/06/24 02:05:01;;;;;;;15.58;4.93;;;;;;;18.20;80.82;100660.49;126893;1096;22803;-78
2021/06/24 02:07:32;;;;;;;14.87;5.57;;;;;;;18.19;80.68;100667.42;126297;1095;22815;-79
2021/06/24 02:10:04;;;;;;;16.88;4.80;;;;;;;18.19;80.61;100658.94;126988;1095;22826;-79
2021/06/24 02:12:37;;;;;;;14.43;4.23;;;;;;;18.21;80.83;100644.28;127015;1095;23679;-79
2021/06/24 02:15:12;;;;;;;12.10;4.10;;;;;;;18.21;80.99;100639.41;126491;1096;22804;-79
2021/06/24 02:17:43;;;;;;;15.57;3.80;;;;;;;18.20;80.82;100626.58;126502;1096;22866;-78
2021/06/24 02:20:18;;;;;;;12.38;3.78;;;;;;;18.20;81.01;100594.72;126496;1096;26292;-78
2021/06/24 02:22:50;;;;;;;12.67;3.30;;;;;;;18.21;81.39;100562.33;126378;1095;23196;-79
2021/06/24 02:25:22;;;;;;;14.10;2.85;;;;;;;18.22;81.09;100525.09;126464;1095;23210;-79
2021/06/24 02:27:53;;;;;;;11.18;3.20;;;;;;;18.17;81.14;100482.73;126464;1096;22783;-80
2021/06/24 02:30:25;;;;;;;9.87;2.67;;;;;;;18.16;81.54;100442.42;126369;1095;22780;-78
2021/06/24 02:32:59;;;;;;;8.90;2.53;;;;;;;18.11;81.46;100386.72;126281;1095;22831;-78
2021/06/24 02:35:34;;;;;;;11.23;2.48;;;;;;;18.02;81.71;100381.39;126596;1096;22726;-79
2021/06/24 02:38:09;;;;;;;6.20;1.50;;;;;;;17.99;81.60;100367.57;126888;1095;22861;-78
2021/06/24 02:40:47;;;;;;;6.90;1.50;;;;;;;17.90;82.04;100323.48;126791;1096;22941;-78
2021/06/24 02:43:18;;;;;;;4.93;1.53;;;;;;;17.83;82.64;100245.00;126338;1095;22777;-79
2021/06/24 02:45:50;;;;;;;12.47;4.00;;;;;;;17.75;83.11;100210.18;126523;1096;22978;-78
2021/06/24 02:48:21;;;;;;;13.80;5.43;;;;;;;17.73;83.15;100246.66;126385;1096;22831;-80
2021/06/24 02:50:54;;;;;;;11.33;4.90;;;;;;;17.72;82.72;100245.88;126767;1095;26338;-78
2021/06/24 02:53:26;;;;;;;11.37;3.43;;;;;;;17.73;82.94;100246.66;126256;1095;23572;-78
2021/06/24 02:56:00;;;;;;;6.93;2.20;;;;;;;17.71;82.99;100249.98;126394;1096;22806;-79
2021/06/24 02:58:35;;;;;;;8.55;2.75;;;;;;;17.66;83.16;100239.53;126253;1095;22778;-76
2021/06/24 03:01:08;;;;;;;10.00;3.37;;;;;;;17.66;82.92;100214.11;126296;1096;22775;-78
2021/06/24 03:03:39;;;;;;;7.50;2.40;;;;;;;17.67;83.28;100226.18;126264;1096;22837;-77
2021/06/24 03:06:11;;;;;;;8.37;2.20;;;;;;;17.64;83.46;100236.47;126214;1095;22777;-77
2021/06/24 03:08:48;;;;;;;8.20;2.10;;;;;;;17.63;83.25;100228.50;126177;1094;22807;-77
2021/06/24 03:11:20;;;;;;;7.33;2.90;;;;;;;17.64;83.57;100225.17;126284;1095;22841;-77
2021/06/24 03:13:52;;;;;;;6.27;2.63;;;;;;;17.66;83.39;100250.05;126263;1096;22786;-79
2021/06/24 03:16:23;;;;;;;13.23;2.70;;;;;;;17.67;83.21;100246.69;126312;1095;26264;-77
2021/06/24 03:18:55;;;;;;;7.90;2.50;;;;;;;17.70;83.30;100278.75;126327;1096;22937;-78
2021/06/24 03:21:26;;;;;;;18.10;2.93;;;;;;;17.72;83.54;100299.53;126301;1096;26271;-76
2021/06/24 03:23:59;;;;;;;11.20;3.00;;;;;;;17.75;83.25;100289.24;126279;1095;22864;-77
2021/06/24 03:26:30;;;;;;;7.00;2.40;;;;;;;17.78;83.20;100228.88;126336;1096;22867;-77
2021/06/24 03:29:01;;;;;;;8.10;3.00;;;;;;;17.79;83.46;100267.87;126257;1096;22804;-77
2021/06/24 03:31:33;;;;;;;8.43;2.40;;;;;;;17.81;83.21;100277.88;126283;1096;22782;-77
2021/06/24 03:34:06;;;;;;;7.93;2.63;;;;;;;17.84;83.23;100273.98;126352;1095;25557;-78
2021/06/24 03:36:37;;;;;;;9.13;3.13;;;;;;;17.84;83.47;100300.17;126320;1096;24437;-79
2021/06/24 03:39:09;;;;;;;7.40;2.83;;;;;;;17.86;83.60;100285.55;126181;1096;22807;-77
2021/06/24 03:41:40;;;;;;;8.45;2.70;;;;;;;17.88;83.46;100203.88;126282;1095;24433;-79
2021/06/24 03:44:11;;;;;;;8.57;3.50;;;;;;;17.88;83.75;100082.45;126319;1096;22944;-77
2021/06/24 03:46:43;;;;;;;9.45;4.15;;;;;;;17.85;83.91;100151.27;126283;1096;22804;-78
2021/06/24 03:49:15;;;;;;;12.60;5.33;;;;;;;17.77;84.01;100307.16;126340;1096;25992;-78
2021/06/24 03:51:46;;;;;;;13.27;5.13;;;;;;;17.75;83.85;100294.89;126249;1095;22791;-79
2021/06/24 03:54:17;;;;;;;12.67;6.70;;;;;;;17.76;84.15;100243.52;126247;1095;27402;-78
2021/06/24 03:57:02;;;;;;;16.83;7.57;;;;;;;17.78;83.95;100245.81;126169;1096;22806;-77
2021/06/24 03:59:33;;;;;;;18.38;8.40;;;;;;;17.79;83.95;100250.92;126299;1095;25661;-78
2021/06/24 04:02:04;;;;;;;16.33;9.00;;;;;;;17.78;83.98;100201.41;126260;1096;22813;-78
2021/06/24 04:04:36;;;;;;;17.20;8.20;;;;;;;17.79;84.15;100183.16;126188;1095;22826;-77
2021/06/24 04:07:07;;;;;;;17.63;8.27;;;;;;;17.80;84.17;100234.75;126259;1095;28595;-77
2021/06/24 04:09:41;;;;;;;18.17;9.83;;;;;;;17.78;84.18;100286.12;126277;1096;22912;-77
2021/06/24 04:12:18;;;;;;;17.60;9.03;;;;;;;17.76;84.59;100293.58;126291;1095;22813;-78
2021/06/24 04:14:50;;;;;;;14.38;8.30;;;;;;;17.77;84.38;100295.13;126444;1095;22755;-79
2021/06/24 04:17:22;;;;;;;15.67;7.97;;;;;;;17.77;84.92;100309.24;126518;1096;22706;-79
2021/06/24 04:19:54;;;;;;;16.40;6.85;;;;;;;17.78;84.71;100339.00;126555;1095;25746;-78
2021/06/24 04:22:26;;;;;;;14.03;6.70;;;;;;;17.79;84.79;100378.00;126532;1095;22798;-78
2021/06/24 04:25:02;;;;;;;13.77;7.33;;;;;;;17.80;84.76;100401.36;126539;1095;23716;-81
2021/06/24 04:27:33;;;;;;;13.38;5.88;;;;;;;17.82;85.13;100383.89;126625;1096;22806;-79
2021/06/24 04:30:06;;;;;;;13.73;5.60;;;;;;;17.81;85.22;100346.43;126929;1095;22804;-79
2021/06/24 04:32:38;;;;;;;11.50;5.20;;;;;;;17.83;84.88;100320.48;127095;1095;22792;-79
2021/06/24 04:35:12;;;;;;;9.97;4.43;;;;;;;17.85;84.93;100337.66;127162;1095;22784;-79
2021/06/24 04:37:44;;;;;;;13.57;4.73;;;;;;;17.87;85.10;100346.38;126949;1095;22803;-79
2021/06/24 04:40:16;;;;;;;9.43;3.83;;;;;;;17.87;85.13;100335.84;126563;1096;22877;-78
2021/06/24 04:42:47;;;;;;;12.73;3.47;;;;;;;17.89;85.27;100350.20;127140;1095;23215;-79
2021/06/24 04:45:20;;;;;;;9.17;3.70;;;;;;;17.91;85.42;100375.09;126955;1096;22720;-79
2021/06/24 04:47:53;;;;;;;8.10;2.90;;;;;;;17.93;85.43;100366.86;126467;1095;22753;-78
2021/06/24 04:50:28;;;;;;;6.63;2.63;;;;;;;17.95;84.92;100353.74;126525;1096;23790;-79
2021/06/24 04:53:00;;;;;;;9.00;2.93;;;;;;;17.97;85.12;100372.98;126823;1095;24505;-79
2021/06/24 04:55:38;;;;;;;7.13;2.33;;;;;;;17.98;85.22;100363.23;126367;1095;22797;-81
2021/06/24 04:58:11;;;;;;;5.25;2.00;;;;;;;17.96;85.08;100352.44;126810;1096;22841;-80
2021/06/24 05:00:42;;;;;;;5.27;1.40;;;;;;;17.97;85.49;100344.73;126981;1095;24900;-79
2021/06/24 05:03:14;;;;;;;5.37;1.80;;;;;;;17.99;85.40;100350.63;126877;1095;24623;-79
2021/06/24 05:05:47;;;;;;;4.70;1.05;;;;;;;17.98;85.05;100349.84;126525;1095;22834;-79
2021/06/24 05:08:21;;;;;;;5.25;1.10;;;;;;;17.98;84.87;100337.80;126338;1095;24445;-78
2021/06/24 05:10:55;;;;;;;3.85;0.90;;;;;;;17.96;84.76;100341.14;126554;1095;26271;-79
2021/06/24 05:13:26;;;;;;;2.47;0.87;;;;;;;17.96;84.85;100329.84;126493;1095;22826;-78
2021/06/24 05:15:58;;;;;;;2.95;0.85;;;;;;;17.98;85.05;100334.98;126598;1096;22780;-78
2021/06/24 05:18:29;;;;;;;5.25;0.90;;;;;;;17.99;85.39;100323.15;126595;1095;22871;-78
2021/06/24 05:21:00;;;;;;;7.67;1.07;;;;;;;18.00;85.42;100327.48;126584;1095;22790;-80
2021/06/24 05:23:33;;;;;;;2.20;0.80;;;;;;;18.00;84.95;100335.22;126551;1096;22791;-78
2021/06/24 05:26:05;;;;;;;8.70;1.00;;;;;;;18.00;85.18;100327.48;126426;1096;22844;-80
2021/06/24 05:28:36;;;;;;;5.00;0.83;;;;;;;18.00;85.39;100326.74;126540;1095;22776;-79
2021/06/24 05:31:09;;;;;;;7.80;1.00;;;;;;;18.01;85.27;100328.27;126358;1095;22834;-78
2021/06/24 05:33:40;;;;;;;2.07;0.60;;;;;;;18.01;84.99;100314.91;126432;1096;22820;-79
2021/06/24 05:36:11;;;;;;;3.35;0.70;;;;;;;18.02;85.00;100299.47;126549;1096;22819;-79
2021/06/24 05:38:43;;;;;;;5.08;0.73;;;;;;;18.02;85.15;100302.30;126593;1096;22785;-78
2021/06/24 05:41:14;;;;;;;4.60;0.90;;;;;;;18.03;85.31;100305.90;126458;1096;22806;-79
2021/06/24 05:43:46;;;;;;;4.37;1.03;;;;;;;18.02;85.25;100307.95;126762;1096;26293;-79
2021/06/24 05:46:18;;;;;;;5.53;0.70;;;;;;;18.03;85.24;100306.67;126796;1095;22800;-80
2021/06/24 05:48:53;;;;;;;3.93;0.90;;;;;;;18.05;85.19;100306.13;126821;1095;22804;-79
2021/06/24 05:51:35;;;;;;;5.25;0.85;;;;;;;18.05;85.60;100306.13;126487;1096;22799;-79
2021/06/24 05:54:08;;;;;;;5.97;1.03;;;;;;;18.05;85.36;100312.55;126515;1096;24486;-78
2021/06/24 05:56:41;;;;;;;7.37;2.13;;;;;;;18.06;85.47;100318.98;126524;1094;27943;-80
2021/06/24 05:59:16;;;;;;;5.40;1.00;;;;;;;18.07;85.67;100326.91;126399;1096;25881;-79
2021/06/24 06:01:48;;;;;;;6.73;1.10;;;;;;;18.09;85.57;100329.20;126876;1096;22772;-80
2021/06/24 06:04:19;;;;;;;4.17;1.10;;;;;;;18.10;85.49;100337.17;126450;1096;22806;-80
2021/06/24 06:06:52;;;;;;;3.48;1.00;;;;;;;18.11;85.71;100344.34;126523;1095;22777;-80
2021/06/24 06:09:24;;;;;;;8.17;1.00;;;;;;;18.11;85.54;100341.52;126477;1096;23801;-80
2021/06/24 06:15:40;;;;;;;4.20;1.00;;;;;;;18.15;85.86;100321.44;126545;1095;22964;-79
2021/06/24 06:18:17;;;;;;;4.77;0.97;;;;;;;18.18;86.10;100328.86;126547;1096;26267;-79
2021/06/24 06:20:49;;;;;;;6.50;1.70;;;;;;;18.21;85.83;100324.96;126469;1096;22807;-79
2021/06/24 06:23:23;;;;;;;8.17;1.80;;;;;;;18.21;85.56;100325.73;126416;1095;22858;-79
2021/06/24 06:25:55;;;;;;;5.55;1.20;;;;;;;18.22;85.60;100338.59;126472;1096;22952;-79
2021/06/24 06:28:28;;;;;;;6.60;1.40;;;;;;;18.23;85.76;100342.92;126411;1095;22759;-79
2021/06/24 06:30:59;;;;;;;7.70;1.88;;;;;;;18.24;85.83;100341.64;126430;1095;22751;-79
2021/06/24 06:33:30;;;;;;;16.23;1.95;;;;;;;18.26;85.92;100338.28;126475;1095;22800;-79
2021/06/24 06:36:02;;;;;;;4.13;1.30;;;;;;;18.29;86.06;100340.80;126505;1095;22821;-78
2021/06/24 06:38:35;;;;;;;9.53;1.50;;;;;;;18.32;85.82;100347.46;126446;1096;24484;-79
2021/06/24 06:41:08;;;;;;;8.47;1.53;;;;;;;18.33;86.03;100344.09;126436;1096;25884;-79
2021/06/24 06:43:44;;;;;;;7.07;1.40;;;;;;;18.35;86.19;100335.11;126405;1095;24483;-79
2021/06/24 06:46:16;;;;;;;4.17;1.00;;;;;;;18.38;86.14;100342.52;126870;1095;22777;-80
2021/06/24 06:48:49;;;;;;;5.15;1.25;;;;;;;18.45;86.29;100339.13;126993;1096;22888;-80
2021/06/24 06:51:24;;;;;;;6.70;1.28;;;;;;;18.48;86.20;100330.34;126904;1096;28464;-79
2021/06/24 06:53:56;;;;;;;5.50;1.30;;;;;;;18.51;85.58;100334.95;127026;1096;22784;-80
2021/06/24 06:56:28;;;;;;;5.15;1.70;;;;;;;18.54;85.63;100331.05;126936;1096;22879;-80
2021/06/24 06:58:59;;;;;;;6.43;1.70;;;;;;;18.58;85.49;100332.82;126865;1095;22780;-80
2021/06/24 07:01:31;;;;;;;6.68;1.80;;;;;;;18.64;85.81;100342.00;126920;1095;22854;-80
2021/06/24 07:04:02;;;;;;;8.77;1.90;;;;;;;18.68;85.54;100346.06;126921;1095;28345;-79
2021/06/24 07:06:34;;;;;;;9.63;2.03;;;;;;;18.70;85.45;100351.17;127052;1095;22875;-79
2021/06/24 07:09:06;;;;;;;5.70;1.70;;;;;;;18.73;85.44;100355.75;126890;1096;22779;-79
2021/06/24 07:11:38;;;;;;;11.78;2.18;;;;;;;18.76;85.50;100352.64;126986;1096;22813;-79
2021/06/24 07:14:12;;;;;;;10.05;2.35;;;;;;;18.82;85.28;100355.39;126928;1096;24484;-80
2021/06/24 07:16:43;;;;;;;8.23;1.98;;;;;;;18.84;85.35;100353.56;127007;1095;26255;-80
2021/06/24 07:19:14;;;;;;;12.80;2.28;;;;;;;18.89;85.47;100369.69;127022;1095;22807;-80
2021/06/24 07:21:46;;;;;;;7.98;2.45;;;;;;;18.93;85.40;100360.91;126970;1096;23850;-80
2021/06/24 07:24:18;;;;;;;12.18;2.33;;;;;;;18.97;85.68;100372.69;126929;1094;23360;-80
2021/06/24 07:26:50;;;;;;;12.00;3.03;;;;;;;19.01;85.74;100371.09;126958;1096;24487;-80
2021/06/24 07:29:23;;;;;;;9.68;2.70;;;;;;;19.03;85.24;100373.38;127056;1095;25609;-80
2021/06/24 07:31:54;;;;;;;9.10;2.83;;;;;;;18.99;84.92;100370.09;126953;1095;22765;-80
2021/06/24 07:34:26;;;;;;;12.78;3.60;;;;;;;18.97;84.64;100364.20;126916;1096;22817;-80
2021/06/24 07:36:58;;;;;;;13.70;3.47;;;;;;;18.97;84.93;100361.38;127156;1095;25915;-80
2021/06/24 07:39:30;;;;;;;9.18;3.70;;;;;;;19.00;84.81;100363.12;126918;1095;22791;-79
2021/06/24 07:42:02;;;;;;;11.08;4.35;;;;;;;19.01;84.88;100359.00;126659;1096;22791;-80
2021/06/24 07:44:33;;;;;;;10.70;4.43;;;;;;;19.02;84.77;100358.46;126615;1095;22771;-79
2021/06/24 07:47:08;;;;;;;12.83;4.23;;;;;;;19.03;84.87;100376.98;127028;1095;22891;-80
2021/06/24 07:49:41;;;;;;;13.98;4.25;;;;;;;19.05;84.63;100384.92;126959;1096;24334;-80
2021/06/24 07:52:12;;;;;;;11.35;4.28;;;;;;;19.08;85.15;100373.30;127036;1096;22782;-80
2021/06/24 07:54:44;;;;;;;12.43;4.70;;;;;;;19.14;85.24;100370.41;127047;1095;24177;-80
2021/06/24 07:57:16;;;;;;;16.10;5.18;;;;;;;19.19;84.92;100373.16;126942;1096;23638;-80
2021/06/24 07:59:48;;;;;;;19.40;4.78;;;;;;;19.26;85.15;100380.27;126960;1095;22817;-80
2021/06/24 08:02:19;;;;;;;12.58;4.65;;;;;;;19.33;84.83;100371.95;127032;1096;22836;-80
2021/06/24 08:04:50;;;;;;;15.60;5.45;;;;;;;19.39;84.42;100371.86;126893;1096;26391;-79
2021/06/24 08:07:22;;;;;;;14.53;5.00;;;;;;;19.45;84.37;100366.88;126457;1096;22780;-79
2021/06/24 08:09:53;;;;;;;15.60;4.98;;;;;;;19.53;84.52;100364.20;126510;1096;25877;-79
2021/06/24 08:12:24;;;;;;;13.60;4.38;;;;;;;19.60;84.11;100361.50;126430;1095;24631;-79
2021/06/24 08:14:56;;;;;;;14.55;5.28;;;;;;;19.68;83.69;100362.39;126871;1096;22779;-79
2021/06/24 08:17:27;;;;;;;15.03;5.68;;;;;;;19.75;83.23;100378.00;126408;1095;22868;-79
2021/06/24 08:19:59;;;;;;;14.93;5.23;;;;;;;19.78;83.11;100379.77;126418;1096;22800;-80
2021/06/24 08:22:31;;;;;;;14.18;5.68;;;;;;;19.80;82.80;100377.16;126426;1096;27233;-81
2021/06/24 08:25:02;;;;;;;17.13;6.20;;;;;;;19.85;83.21;100367.79;126653;1096;22805;-79
2021/06/24 08:27:39;;;;;;;14.80;5.03;;;;;;;19.96;83.12;100364.77;126678;1095;22803;-80
2021/06/24 08:30:12;;;;;;;13.90;5.30;;;;;;;20.02;82.66;100373.94;126696;1096;22735;-79
2021/06/24 08:32:43;;;;;;;14.58;4.98;;;;;;;20.11;82.86;100374.28;126519;1095;24325;-80
2021/06/24 08:35:17;;;;;;;12.45;5.43;;;;;;;20.22;82.80;100386.75;126514;1096;22755;-80
2021/06/24 08:37:48;;;;;;;14.53;5.18;;;;;;;20.31;82.43;100378.61;126580;1096;24505;-80
2021/06/24 08:40:20;;;;;;;14.68;5.63;;;;;;;20.36;81.84;100374.14;126613;1095;22776;-79
2021/06/24 08:42:51;;;;;;;15.58;5.68;;;;;;;20.40;82.13;100375.33;126640;1096;22781;-78
2021/06/24 08:45:22;;;;;;;17.55;6.78;;;;;;;20.45;81.63;100382.97;126625;1095;22859;-79
2021/06/24 08:47:57;;;;;;;13.85;5.40;;;;;;;20.56;81.92;100376.33;126689;1096;22804;-80
2021/06/24 08:50:30;;;;;;;12.50;5.13;;;;;;;20.59;81.31;100384.50;126716;1096;23045;-79
2021/06/24 08:53:01;;;;;;;12.90;4.60;;;;;;;20.60;80.75;100382.44;126693;1096;22810;-79
2021/06/24 08:55:40;;;;;;;15.53;5.30;;;;;;;20.65;81.15;100378.73;127002;1096;22854;-79
2021/06/24 08:58:14;;;;;;;14.80;5.25;;;;;;;20.73;81.16;100385.28;127403;1096;26265;-79
2021/06/24 09:00:45;;;;;;;12.55;4.58;;;;;;;20.82;81.05;100390.49;127290;1095;22799;-79
2021/06/24 09:03:19;;;;;;;12.78;4.70;;;;;;;20.89;80.59;100382.10;126929;1096;23451;-80
2021/06/24 09:05:54;;;;;;;14.23;4.10;;;;;;;20.96;80.59;100375.74;126911;1095;24489;-80
2021/06/24 09:08:42;;;;;;;12.13;3.88;;;;;;;21.03;80.20;100385.70;126982;1095;22795;-81
2021/06/24 09:11:17;;;;;;;9.10;3.23;;;;;;;21.13;79.87;100392.45;127449;1095;22811;-81
2021/06/24 09:14:02;;;;;;;10.60;3.73;;;;;;;21.22;79.95;100383.48;127537;1096;22813;-81
2021/06/24 09:16:38;;;;;;;14.03;4.25;;;;;;;21.33;79.70;100396.67;127570;1096;22888;-79
2021/06/24 09:19:21;;;;;;;10.25;4.28;;;;;;;21.43;79.70;100383.53;127331;1095;22780;-80
2021/06/24 09:22:01;;;;;;;15.25;4.83;;;;;;;21.54;78.82;100389.70;126601;1096;24177;-79
2021/06/24 09:24:35;;;;;;;13.03;4.40;;;;;;;21.54;78.80;100384.02;126684;1095;22777;-79
2021/06/24 09:27:23;;;;;;;12.45;4.00;;;;;;;21.62;78.80;100378.44;127128;1096;22869;-79
2021/06/24 09:30:05;;;;;;;14.23;3.98;;;;;;;21.74;78.75;100374.78;127292;1096;22778;-79
2021/06/24 09:32:38;;;;;;;12.13;4.35;;;;;;;21.84;78.00;100377.92;127681;1095;22800;-79
2021/06/24 09:35:21;;;;;;;13.45;4.03;;;;;;;21.94;78.44;100381.03;127962;1095;22812;-78
2021/06/24 09:38:06;;;;;;;11.78;4.23;;;;;;;22.11;77.88;100384.22;127247;1096;22780;-79
2021/06/24 09:40:47;;;;;;;13.30;3.88;;;;;;;22.17;78.11;100384.83;127494;1096;22908;-79
2021/06/24 09:43:35;;;;;;;9.00;3.00;;;;;;;22.23;77.08;100376.92;127734;1096;22783;-81
2021/06/24 09:46:12;;;;;;;12.50;3.93;;;;;;;22.19;76.74;100385.03;127336;1096;22786;-81
2021/06/24 09:48:45;;;;;;;11.78;4.48;;;;;;;22.16;76.57;100377.63;126982;1096;22835;-80
2021/06/24 09:51:21;;;;;;;11.58;4.35;;;;;;;22.16;76.07;100378.38;126933;1096;25736;-80
2021/06/24 09:53:58;;;;;;;12.55;3.73;;;;;;;22.21;75.87;100380.33;126852;1096;22824;-81
2021/06/24 09:56:33;;;;;;;8.48;3.05;;;;;;;22.24;75.74;100382.03;126880;1096;24143;-80
2021/06/24 09:59:15;;;;;;;12.40;3.85;;;;;;;22.29;74.86;100381.14;126873;1095;22870;-80
2021/06/24 10:01:48;;;;;;;11.80;3.80;;;;;;;22.25;75.21;100386.42;126869;1096;22779;-80
2021/06/24 10:04:28;;;;;;;10.75;3.25;;;;;;;22.28;75.33;100381.70;126855;1096;22920;-81
2021/06/24 10:07:01;;;;;;;10.53;4.05;;;;;;;22.33;74.42;100380.78;126900;1095;22847;-80
2021/06/24 10:09:33;;;;;;;10.18;2.63;;;;;;;22.31;74.75;100380.58;126975;1095;22796;-80
2021/06/24 10:12:07;;;;;;;17.23;3.30;;;;;;;22.38;74.46;100377.80;126658;1096;22825;-80
2021/06/24 10:14:40;;;;;;;10.18;2.73;;;;;;;22.52;74.96;100378.45;126750;1096;25903;-81
2021/06/24 10:17:12;;;;;;;8.90;3.25;;;;;;;22.66;74.35;100373.46;126866;1096;22831;-81
2021/06/24 10:19:45;;;;;;;10.78;3.75;;;;;;;22.71;73.95;100366.83;126732;1096;22988;-80
2021/06/24 10:22:22;;;;;;;10.13;3.43;;;;;;;22.75;73.46;100372.93;126781;1096;24435;-81
2021/06/24 10:25:00;;;;;;;10.07;3.67;;;;;;;22.77;73.64;100370.28;126809;1096;22804;-80
2021/06/24 10:27:35;;;;;;;13.63;3.73;;;;;;;22.87;73.05;100363.51;126662;1095;25886;-80
2021/06/24 10:30:14;;;;;;;12.67;3.73;;;;;;;22.95;73.55;100360.69;126807;1095;22804;-79
2021/06/24 10:32:57;;;;;;;7.93;3.10;;;;;;;22.97;72.92;100360.88;126840;1095;28250;-79
2021/06/24 10:35:32;;;;;;;13.73;4.13;;;;;;;22.94;72.32;100357.09;126439;1096;22945;-79
2021/06/24 10:38:05;;;;;;;9.95;2.93;;;;;;;22.94;72.73;100348.56;126435;1095;22835;-79
2021/06/24 10:40:39;;;;;;;12.45;3.65;;;;;;;23.02;72.61;100343.66;126343;1096;22801;-80
2021/06/24 10:43:13;;;;;;;11.50;4.43;;;;;;;23.06;72.06;100349.74;126388;1096;24599;-80
2021/06/24 10:45:47;;;;;;;14.38;4.10;;;;;;;23.12;71.65;100356.03;126406;1095;22748;-79
2021/06/24 10:48:31;;;;;;;11.63;3.08;;;;;;;23.18;71.82;100345.22;126455;1096;22784;-79
2021/06/24 10:51:07;;;;;;;10.20;3.77;;;;;;;23.26;71.75;100348.09;126561;1095;22810;-79
2021/06/24 10:53:54;;;;;;;9.90;3.15;;;;;;;23.35;71.39;100350.43;126494;1095;22742;-79
2021/06/24 10:56:44;;;;;;;12.80;3.03;;;;;;;23.47;72.01;100339.43;126570;1096;22792;-79
2021/06/24 10:59:35;;;;;;;11.35;3.13;;;;;;;23.59;70.95;100340.62;126538;1095;22941;-79
2021/06/24 11:02:14;;;;;;;11.95;3.53;;;;;;;23.66;70.97;100343.47;126437;1095;22796;-79
2021/06/24 11:04:47;;;;;;;14.58;3.85;;;;;;;23.79;71.16;100336.83;126504;1095;23033;-80
2021/06/24 11:07:37;;;;;;;12.17;2.73;;;;;;;23.93;71.07;100330.38;126496;1095;25771;-81
2021/06/24 11:10:29;;;;;;;9.20;2.73;;;;;;;24.09;70.53;100329.06;126517;1096;22834;-80
2021/06/24 11:13:12;;;;;;;8.65;2.50;;;;;;;24.19;69.20;100331.34;126573;1095;22788;-81
2021/06/24 11:15:57;;;;;;;8.00;2.30;;;;;;;24.10;69.33;100324.13;127018;1095;22795;-81
2021/06/24 11:18:57;;;;;;;8.95;2.25;;;;;;;24.07;69.34;100334.58;127088;1095;22876;-81
2021/06/24 11:21:56;;;;;;;13.23;2.77;;;;;;;23.98;68.77;100332.26;126951;1096;22858;-81
2021/06/24 11:24:31;;;;;;;8.05;2.28;;;;;;;23.96;69.12;100325.63;127047;1096;22759;-81
2021/06/24 11:27:20;;;;;;;8.00;2.70;;;;;;;24.06;69.05;100333.05;127044;1095;26277;-81
2021/06/24 11:29:52;;;;;;;11.93;3.20;;;;;;;24.13;68.50;100342.93;126934;1095;22804;-81
2021/06/24 11:32:30;;;;;;;9.25;2.53;;;;;;;24.05;67.90;100348.65;126933;1095;22806;-81
2021/06/24 11:35:14;;;;;;;11.40;3.10;;;;;;;23.94;68.32;100345.40;126930;1093;22780;-81
2021/06/24 11:37:47;;;;;;;6.78;2.60;;;;;;;23.88;68.73;100341.95;127082;1096;22847;-80
2021/06/24 11:40:21;;;;;;;9.53;2.78;;;;;;;23.88;68.72;100339.09;126948;1093;25796;-80
2021/06/24 11:42:53;;;;;;;7.68;2.70;;;;;;;23.89;68.56;100340.63;126684;1093;22831;-80
2021/06/24 11:45:26;;;;;;;14.60;3.47;;;;;;;23.89;68.22;100335.70;126527;1096;26270;-81